那覇空港の過去48時間の天気

那覇空港 (Naha)

現在時刻: 10/16 15:49 JST (10/16 06:49 UTC) 以下の時間は現地時間です。

過去48時間のMETAR気象情報
時間 風向 風速(m/s) 視程 気温(℃) 湿度(%) 気圧(hPa) 天気現象
16 15:30 5 10km以上 26 74 1009
16 15:00 北北西 6 10km以上 27 70 1009
16 14:30 北北西 5 10km以上 27 70 1009
16 14:00 6 10km以上 27 74 1009
16 13:30 北北西 5 10km以上 27 74 1010
16 13:00 北北西 4 10km以上 27 70 1010
16 12:30 北北西 4 10km以上 27 74 1010
16 12:00 西北西 3 10km以上 27 74 1011
16 11:30 西北西 4 10km以上 26 79 1011
16 11:00 不定 1 10km以上 26 79 1011
16 10:30 不定 1 10km以上 26 79 1012
16 10:00 東北東 2 10km以上 26 79 1012
16 09:30 北北東 2 10km以上 26 79 1012
16 09:00 北東 3 10km以上 25 78 1012
16 08:30 北東 3 10km以上 25 78 1012
16 08:00 北北東 3 10km以上 24 89 1012
16 07:30 北北東 4 10km以上 24 83 1012
16 07:00 北北東 4 10km以上 24 83 1012
16 06:30 北北東 4 10km以上 24 83 1011
16 06:00 北北東 4 10km以上 24 89 1011
16 05:30 北北東 4 10km以上 24 83 1011
16 05:00 北北東 4 10km以上 24 83 1011
16 04:30 北北東 4 10km以上 24 83 1011
16 04:00 北北東 4 10km以上 24 83 1011
16 03:30 北北東 3 10km以上 24 83 1011
16 03:00 3 10km以上 23 89 1012
16 02:30 北北東 3 10km以上 23 89 1011
16 02:00 北東 3 10km以上 23 89 1012
16 01:30 北東 3 10km以上 24 83 1012
16 01:00 東北東 2 10km以上 24 78 1012
16 00:30 北北東 2 10km以上 24 83 1012
16 00:00 北東 3 10km以上 24 83 1012
15 23:30 北東 4 10km以上 24 83 1012
15 23:00 北北東 4 10km以上 24 83 1012
15 22:30 北北東 5 10km以上 24 83 1013
15 22:00 北東 6 10km以上 24 83 1013
15 21:30 北北東 5 10km以上 24 83 1013
15 21:00 北北東 4 10km以上 24 83 1013
15 20:30 北東 3 10km以上 24 83 1012
15 20:00 北北東 4 10km以上 24 83 1012
15 19:30 北北東 5 10km以上 24 83 1012
15 19:00 北北東 6 10km以上 24 89 1012
15 18:30 北北東 5 10km以上 24 83 1012
15 18:00 北東 4 10km以上 25 83 1012
15 17:30 東北東 5 10km以上 25 83 1011
15 17:00 北東 5 10km以上 25 83 1011 周辺でしゅう雨
15 16:30 東北東 6 10km以上 25 83 1011 周辺でしゅう雨
15 16:00 東北東 6 10km以上 26 79 1011 周辺でしゅう雨
15 15:30 東北東 6 10km以上 26 79 1011 弱いしゅう雨
15 15:00 5 10km以上 26 79 1011 弱いしゅう雨
15 14:30 4 10km以上 26 79 1011 弱いしゅう雨
15 14:00 5 10km以上 26 79 1011
15 13:30 5 10km以上 27 79 1011
15 13:00 東北東 5 10km以上 26 84 1012
15 12:30 4 10km以上 25 89 1012
15 12:00 4 10km以上 25 89 1013 弱いしゅう雨
15 11:30 4 10km以上 24 89 1013 弱いしゅう雨
15 11:00 4 10km以上 24 89 1013 弱いしゅう雨
15 10:46 4 10km以上 23 94 1014 弱いしゅう雨
15 10:30 東北東 3 6000m 23 94 1014 しゅう雨
15 10:00 東南東 3 6000m 23 94 1014 弱いしゅう雨
15 09:30 東南東 3 6000m 23 94 1015 弱いしゅう雨
15 09:00 北北東 5 3000m 23 89 1015 しゅう雨
15 08:30 北北東 6 2000m 23 94 1014 強いしゅう雨
15 08:00 北北東 8 2000m 23 89 1013 強いしゅう雨
15 07:41 北北東 5 2000m 23 94 1014 強いしゅう雨
15 07:35 北北東 4 2000m 23 94 1014 強いしゅう雨
15 07:30 北北東 5 2000m 23 94 1014 強いしゅう雨
15 07:07 北北東 7 3000m 23 89 1013 強いしゅう雨
15 07:00 北北東 6 4000m 23 89 1013 しゅう雨
15 06:30 北北東 5 4000m 23 94 1013 しゅう雨
15 06:00 北北東 7 4000m 23 94 1013 強いしゅう雨
15 05:50 北北東 8 3000m 23 94 1013 強いしゅう雨
15 05:40 7 3000m 23 89 1013 強いしゅう雨
15 05:10 5 2000m 23 94 1013 強いしゅう雨
15 05:04 北北西 7 2000m 24 89 1013 強いしゅう雨
15 05:00 7 2000m 24 89 1013 強いしゅう雨
15 04:44 3 4000m 24 89 1013 強い雷雨
15 04:30 不定 2 8000m 25 83 1013 雷雨
15 04:18 西北西 4 10km以上 24 89 1013 雷雨
15 04:00 南東 4 10km以上 25 89 1013 弱い雷雨
15 03:30 4 10km以上 25 89 1012 弱い雷雨
15 03:00 3 10km以上 25 89 1012 弱い雷雨
15 02:51 東北東 4 10km以上 25 89 1012 弱い雷雨
15 02:30 東北東 3 8000m 25 89 1013 雷雨
15 02:20 3 8000m 25 89 1013 雷雨
15 02:00 2 10km以上 25 89 1013 弱い雷雨
15 01:30 東北東 2 10km以上 25 83 1014 弱い雨
15 01:00 2 10km以上 25 83 1014 弱い雨
15 00:30 2 10km以上 26 79 1014 弱い雨
15 00:00 2 10km以上 26 79 1014 弱い雨
14 23:30 東北東 2 10km以上 26 84 1015 弱いしゅう雨
14 23:00 東北東 3 10km以上 26 79 1015 弱いしゅう雨
14 22:30 東北東 3 10km以上 25 83 1015 弱いしゅう雨
14 22:00 東北東 2 10km以上 26 79 1015
14 21:30 東北東 3 10km以上 25 83 1015
14 21:00 3 10km以上 26 79 1015
14 20:30 東北東 4 10km以上 25 83 1015
14 20:00 東北東 4 10km以上 25 83 1015
14 19:30 東北東 4 10km以上 25 78 1015
14 19:00 東北東 5 10km以上 25 83 1015
14 18:30 東北東 5 10km以上 25 78 1015
14 18:00 東北東 5 10km以上 25 78 1015
14 17:30 東北東 5 10km以上 26 74 1015
14 17:00 4 10km以上 26 74 1014
14 16:30 東北東 5 10km以上 26 74 1015
14 16:00 5 10km以上 26 74 1015
ROAH 160630Z 35009KT 9999 FEW015 26/21 Q1009 RMK 1CU015 A2982
ROAH 160600Z 34012KT 9999 FEW015 27/21 Q1009 RMK 1CU015 A2982
ROAH 160530Z 34010KT 9999 FEW015 27/21 Q1009 RMK 1CU015 A2982
ROAH 160500Z 35011KT 9999 FEW015 SCT140 27/22 Q1009 RMK 1CU015 3AC140 A2982
ROAH 160430Z 33010KT 9999 FEW015 SCT140 27/22 Q1010 RMK 1CU015 3AC140 A2983
ROAH 160400Z 34008KT 9999 FEW015 27/21 Q1010 RMK 1CU015 A2984
ROAH 160330Z 33008KT 290V010 9999 FEW015 27/22 Q1010 RMK 2CU015 A2984
ROAH 160300Z 30006KT 9999 FEW015 SCT/// 27/22 Q1011 RMK 1CU015 A2986
ROAH 160230Z 30007KT 9999 FEW015 SCT190 26/22 Q1011 RMK 1CU015 4AC190 A2987
ROAH 160200Z VRB02KT 9999 FEW015 BKN190 26/22 Q1011 RMK 1CU015 6AC190 A2987
ROAH 160130Z VRB02KT 9999 FEW015 SCT120 26/22 Q1012 RMK 1CU015 4AC120 A2988
ROAH 160100Z 06003KT 030V130 9999 FEW015 BKN120 26/22 Q1012 RMK 1CU015 6AC120 A2989
ROAH 160030Z 03004KT 9999 FEW015 BKN190 26/22 Q1012 RMK 1CU015 6AC190 A2989
ROAH 160000Z 04005KT 350V070 9999 FEW015 BKN200 25/21 Q1012 RMK 1CU015 5AC200 A2989
ROAH 152330Z 04005KT 9999 FEW015 SCT060 BKN180 25/21 Q1012 RMK 1CU015 3SC060 6AC180 A2989
ROAH 152300Z 03006KT 9999 FEW010 SCT040 BKN070 24/22 Q1012 RMK 1CU010 3SC040 6AC070 A2990
ROAH 152230Z 02007KT 350V110 9999 FEW010 BKN040 24/21 Q1012 RMK 1CU010 6SC040 A2989
ROAH 152200Z 02007KT 9999 FEW010 SCT045 BKN060 24/21 Q1012 RMK 1CU010 3SC045 7SC060 A2989
ROAH 152130Z 02007KT 350V060 9999 FEW009 BKN040 24/21 Q1011 RMK 1CU009 7SC040 A2988
ROAH 152100Z 03007KT 9999 FEW009 BKN040 24/22 Q1011 RMK 1CU009 6SC040 A2987
ROAH 152030Z 03007KT 9999 FEW010 BKN040 24/21 Q1011 RMK 1CU010 7SC040 A2987
ROAH 152000Z 03007KT 9999 FEW015 BKN040 24/21 Q1011 RMK 1CU015 7SC040 A2987
ROAH 151930Z 02007KT 9999 FEW015 BKN040 24/21 Q1011 RMK 1CU015 7SC040 A2986
ROAH 151900Z 03008KT 9999 FEW015 BKN040 24/21 Q1011 RMK 1CU015 6SC040 A2986
ROAH 151830Z 02005KT 9999 FEW015 BKN060 24/21 Q1011 RMK 1CU015 6SC060 A2987
ROAH 151800Z 01005KT 9999 FEW015 SCT070 23/21 Q1012 RMK 1CU015 3AC070 A2988
ROAH 151730Z 03005KT 9999 FEW015 SCT040 23/21 Q1011 RMK 1CU015 3SC040 A2988
ROAH 151700Z 04005KT 9999 FEW015 BKN035 23/21 Q1012 RMK 1CU015 5CU035 A2989
ROAH 151630Z 05006KT 010V070 9999 FEW015 BKN030 24/21 Q1012 RMK 1CU015 6CU030 A2990
ROAH 151600Z 06004KT 020V090 9999 FEW015 BKN040 24/20 Q1012 RMK 1CU015 7SC040 A2990
ROAH 151530Z 03003KT 350V080 9999 FEW010 BKN030 24/21 Q1012 RMK 1CU010 7CU030 A2991
ROAH 151500Z 04005KT 360V090 9999 FEW010 BKN032 24/21 Q1012 RMK 1CU010 6CU032 A2990
ROAH 151430Z 04007KT 010V070 9999 FEW009 SCT011 BKN032 24/21 Q1012 RMK 1CU009 3CU011 6CU032 A2990
ROAH 151400Z 03007KT 9999 FEW009 BKN011 BKN030 24/21 Q1012 RMK 1CU009 5CU011 7CU030 A2991
ROAH 151330Z 03010KT 9999 FEW009 BKN011 24/21 Q1013 RMK 1CU009 6CU011 A2991
ROAH 151300Z 04011KT 9999 FEW009 BKN011 24/21 Q1013 RMK 1CU009 6CU011 A2991
ROAH 151230Z 03009KT 9999 FEW009 BKN011 24/21 Q1013 RMK 1CU009 6CU011 A2992
ROAH 151200Z 03008KT 010V110 9999 FEW009 BKN011 BKN100 24/21 Q1013 RMK 1CU009 5CU011 7AC100 A2991
ROAH 151130Z 04006KT 360V070 9999 SCT010 BKN100 24/21 Q1012 RMK 4CU010 6AC100 A2990
ROAH 151100Z 03008KT 350V060 9999 FEW010 BKN100 24/21 Q1012 RMK 2CU010 6AC100 A2990
ROAH 151030Z 03010KT 9999 FEW009 BKN013 24/21 Q1012 RMK 1CU009 6CU013 A2990
ROAH 151000Z 02011KT 9999 FEW009 BKN013 24/22 Q1012 RMK 1CU009 6CU013 A2990
ROAH 150930Z 02010KT 9999 FEW010 BKN014 BKN032 24/21 Q1012 RMK 1CU010 5CU014 6CU032 A2990
ROAH 150900Z 05008KT 010V110 9999 FEW010 BKN032 25/22 Q1012 RMK 2CU010 7CU032 A2988
ROAH 150830Z 06009KT 020V090 9999 FEW010 BKN035 25/22 Q1011 RMK 2CU010 6CU035 A2988
ROAH 150800Z 05010KT 9999 VCSH SCT010 BKN030 25/22 Q1011 RMK 3CU010 6CU030 A2987
ROAH 150730Z 06012KT 010V100 9999 VCSH FEW010 SCT030 BKN050 25/22 Q1011 RMK 2CU010 4CU030 6SC050 A2987
ROAH 150700Z 06011KT 9999 VCSH FEW010 SCT020 BKN050 26/22 Q1011 RMK 2CU010 3CU020 5SC050 A2987
ROAH 150630Z 07011KT 9999 -SHRA FEW007 SCT010 BKN030 26/22 Q1011 RMK 1ST007 4CU010 5CU030 A2986
ROAH 150600Z 08009KT 050V110 9999 -SHRA FEW010 SCT020 BKN040 26/22 Q1011 RMK 2CU010 3CU020 6SC040 A2986
ROAH 150530Z 08008KT 050V130 9999 -SHRA FEW010 SCT020 BKN040 26/22 Q1011 RMK 1CU010 3CU020 7SC040 A2986
ROAH 150500Z 08010KT 050V110 9999 FEW010 SCT020 BKN040 26/22 Q1011 RMK 1CU010 4CU020 7SC040 A2987
ROAH 150430Z 08009KT 040V130 9999 FEW010 SCT020 BKN040 27/23 Q1011 RMK 1CU010 3CU020 7SC040 A2987
ROAH 150400Z 07009KT 050V110 9999 FEW010 SCT020 BKN045 26/23 Q1012 RMK 1CU010 3CU020 7SC045 A2989
ROAH 150330Z 09007KT 050V160 9999 FEW009 SCT020 BKN040 25/23 Q1012 RMK 1ST009 3CU020 7SC040 A2990
ROAH 150300Z 09008KT 030V140 9999 -SHRA FEW005 BKN020 BKN050 25/23 Q1013 RMK 1ST005 5CU020 7SC050 A2992
ROAH 150230Z 08008KT 050V110 9999 -SHRA FEW005 BKN020 24/22 Q1013
ROAH 150200Z 09008KT 060V130 9999 -SHRA FEW005 SCT020 BKN030 24/22 Q1013 RMK 1ST005 4CU020 6CU030 A2994
ROAH 150146Z 08007KT 040V140 9999 -SHRA FEW006 SCT020 BKN050 23/22 Q1014 RMK 1ST006 3CU020 7SC050 A2994
ROAH 150130Z 07005KT 040V110 6000 SHRA FEW006 SCT020 BKN030 23/22 Q1014 RMK 1ST006 3CU020 5CU030 A2995
ROAH 150100Z 12005KT 080V150 6000 -SHRA FEW006 SCT015 BKN030 23/22 Q1014 RMK 1ST006 3CU015 6CU030 A2997
ROAH 150030Z 11005KT 030V150 6000 -SHRA FEW005 BKN015 BKN020 23/22 Q1015 RMK 2ST005 5CU015 6CU020 A2998
ROAH 150000Z 03009KT 010V070 3000 SHRA FEW005 SCT015 FEW020TCU BKN030 23/21 Q1015 RMK 2ST005 4CU015 2TCU020 6CU030 A2997 TCU 8KM S MOV NE
ROAH 142330Z 03012KT 2000 R36/1600VP1800N +SHRA FEW005 SCT010 SCT020TCU BKN025 23/22 Q1014 RMK 2ST005 4CU010 3TCU020 6CU025 A2996 TCU OHD MOV NE
ROAH 142300Z 03015KT 2000 R36/1100VP1800D +SHRA FEW005 SCT010 SCT020TCU BKN025 23/21 Q1013 RMK 2ST005 3CU010 3TCU020 6CU025 A2994 TCU OHD MOV NE
ROAH 142241Z 03010KT 350V060 2000 R36/1000V1500U +SHRA FEW005 SCT010 SCT020TCU BKN025 23/22 Q1014 RMK 2ST005 3CU010 3TCU020 6CU025 A2996 TCU OHD MOV NE RI++
ROAH 142235Z 02008KT 2000 R36/1000VP1800D +SHRA FEW005 SCT010 SCT020TCU BKN025 23/22 Q1014 RMK 2ST005 3CU010 3TCU020 6CU025 A2996 TCU OHD MOV NE RI++
ROAH 142230Z 02009KT 350V080 2000 R36/1600VP1800N +SHRA FEW005 SCT015 SCT020TCU BKN025 23/22 Q1014 RMK 2ST005 3CU015 3TCU020 6CU025 A2994 TCU OHD MOV NE RI++
ROAH 142207Z 03013KT 3000 +SHRA FEW005 SCT015 FEW020TCU BKN025 23/21 Q1013 RMK 2ST005 3CU015 2TCU020 6CU025 A2992 TCU 8KM SW MOV NE RI++
ROAH 142200Z 03012KT 4000 SHRA FEW005 SCT015 FEW020TCU BKN025 23/21 Q1013 RMK 1ST005 3CU015 2TCU020 6CU025 A2992 TCU 10KM SW MOV NE
ROAH 142130Z 03010KT 4000 SHRA FEW005 SCT015 FEW020CB BKN025 23/22 Q1013 RMK 1ST005 3CU015 2CB020 6CU025 A2992 CB 8KM SW MOV NE
ROAH 142100Z 03013KT 4000 R36/P1800N +SHRA FEW005 SCT012 FEW020CB BKN030 23/22 Q1013 RMK 2ST005 4CU012 2CB020 6CU030 A2992 CB 8KM NE MOV NE
ROAH 142050Z 02015KT 3000 R36/1100VP1800U +SHRA FEW005 SCT012 SCT020CB BKN030 23/22 Q1013 RMK 2ST005 4CU012 3CB020 6CU030 A2992 CB OHD MOV N
ROAH 142040Z 01013KT 3000 R36/0750V1800D +SHRA FEW005 SCT012 SCT020CB BKN030 23/21 Q1013 RMK 2ST005 4CU012 3CB020 6CU030 A2992 CB OHD MOV N RI++
ROAH 142010Z 36010KT 330V070 2000 R36/0800N +SHRA FEW006 SCT015 SCT020CB BKN030 23/22 Q1013 RMK 2ST006 4CU015 3CB020 6CU030 A2992 CB OHD MOV N RI++
ROAH 142004Z 34014KT 2000 R36/0700VP1800D +SHRA FEW006 SCT015 SCT020CB BKN030 24/22 Q1013 RMK 2ST006 4CU015 3CB020 6CU030 A2991 CB OHD MOV N RI++
ROAH 142000Z 35013KT 2000 R36/0800VP1800D +SHRA FEW015 SCT020 SCT025CB BKN030 24/22 Q1013 RMK 2CU015 4CU020 3CB025 6CU030 A2992 CB OHD MOV N RI++
ROAH 141944Z 01005KT 320V040 4000 +TSRA FEW015 SCT020 FEW025CB BKN050 24/22 Q1013 RMK 2CU015 4CU020 2CB025 5SC050 A2991 FBL TS 15KM N MOV N RI++
ROAH 141930Z VRB04KT 8000 TSRA FEW012 SCT020 FEW025CB BKN050 25/22 Q1013 RMK 2CU012 3CU020 2CB025 5SC050 A2991 FBL TS 10KM N MOV N
ROAH 141918Z 29007KT 260V330 9999 TSRA FEW010 SCT020 FEW025CB BKN050 24/22 Q1013 RMK 2CU010 3CU020 2CB025 5SC050 A2991 FBL TS 8KM N MOV N
ROAH 141900Z 13007KT 9999 -TSRA FEW015 SCT020 FEW025CB BKN050 25/23 Q1013 RMK 2CU015 3CU020 2CB025 5SC050 A2991 FBL TS 8KM NW MOV NE
ROAH 141830Z 10007KT 9999 -TSRA FEW015 SCT020 FEW025CB BKN070 25/23 Q1012 RMK 2CU015 3CU020 2CB025 6AC070 A2990 FBL TS 10KM NW MOV NE
ROAH 141800Z 09006KT 9999 -TSRA FEW015 SCT020 FEW025CB BKN070 25/23 Q1012 RMK 2CU015 3CU020 2CB025 6AC070 A2991 FBL TS 10KM NW MOV NE
ROAH 141751Z 07007KT 9999 -TSRA FEW015 FEW025CB BKN070 25/23 Q1012 RMK 2CU015 2CB025 6AC070 A2991 FBL TS 10KM NW MOV NE
ROAH 141730Z 07005KT 040V100 8000 TSRA FEW015 FEW025CB BKN050 25/23 Q1013 RMK 2CU015 2CB025 6SC050 A2993 FBL TS 10KM W MOV NE
ROAH 141720Z 08005KT 050V110 8000 TSRA FEW015 FEW025CB BKN045 25/23 Q1013 RMK 2CU015 2CB025 6SC045 A2992 FBL TS 10KM W MOV NE
ROAH 141700Z 08004KT 040V110 9999 -TSRA FEW015 FEW025CB BKN060 25/23 Q1013 RMK 1CU015 2CB025 6SC060 A2993 FBL TS 10KM SW MOV NE
ROAH 141630Z 07004KT 040V130 9999 -RA FEW015 BKN050 25/22 Q1014 RMK 1CU015 6SC050 A2995
ROAH 141600Z 09004KT 040V130 9999 -RA FEW015 BKN070 25/22 Q1014 RMK 1CU015 6AC070 A2996
ROAH 141530Z 09004KT 050V140 9999 -RA FEW020 SCT070 BKN150 26/22 Q1014 RMK 1CU020 3AC070 6AC150 A2997
ROAH 141500Z 08004KT 050V130 9999 -RA FEW014 SCT050 BKN100 26/22 Q1014 RMK 1CU014 3SC050 6AC100 A2997
ROAH 141430Z 06004KT 9999 -SHRA FEW014 SCT020 BKN050 26/23 Q1015 RMK 1CU014 3CU020 5SC050 A2999
ROAH 141400Z 06005KT 040V110 9999 -SHRA FEW014 SCT030 BKN090 26/22 Q1015 RMK 2CU014 3CU030 5AC090 A2999
ROAH 141330Z 07006KT 030V100 9999 -SHRA SCT014 SCT050 BKN140 25/22 Q1015 RMK 3CU014 4SC050 6AC140 A2999
ROAH 141300Z 06004KT 9999 SCT014 BKN020 26/22 Q1015 RMK 4CU014 6CU020 A3000
ROAH 141230Z 06006KT 030V110 9999 SCT014 SCT060 BKN/// 25/22 Q1015 RMK 3CU014 4SC060 A3000
ROAH 141200Z 09006KT 040V130 9999 FEW015 SCT060 BKN/// 26/22 Q1015
ROAH 141130Z 07007KT 040V100 9999 FEW015 SCT060 BKN/// 25/22 Q1015
ROAH 141100Z 07007KT 040V100 9999 FEW015 SCT060 BKN090 25/22 Q1015 RMK 1CU015 4SC060 6AC090 A2999
ROAH 141030Z 07008KT 040V140 9999 FEW020 BKN090 25/21 Q1015 RMK 1CU020 6AC090 A2999
ROAH 141000Z 07010KT 9999 FEW015 BKN050 BKN080 25/22 Q1015 RMK 2CU015 5SC050 6AC080 A2998
ROAH 140930Z 07009KT 040V100 9999 FEW015 SCT050 BKN070 25/21 Q1015 RMK 2CU015 4SC050 6AC070 A2999
ROAH 140900Z 07010KT 040V110 9999 FEW018 BKN050 25/21 Q1015 RMK 2CU018 7SC050 A2998
ROAH 140830Z 07010KT 040V110 9999 FEW020 BKN050 26/21 Q1015 RMK 2CU020 7SC050 A2998
ROAH 140800Z 08007KT 040V130 9999 FEW020 BKN050 26/21 Q1014 RMK 2CU020 6SC050 A2997
ROAH 140730Z 07010KT 050V120 9999 SCT018 BKN050 26/21 Q1015 RMK 3CU018 7SC050 A2997
ROAH 140700Z 08009KT 050V120 9999 FEW020 BKN045 26/21 Q1015 RMK 2CU020 7SC045 A2997